createdAt,value
2024-02-24T00:01:09.123Z,8.32
2024-02-24T00:03:35.928Z,8.35
2024-02-24T00:06:03.214Z,8.39
2024-02-24T00:08:30.015Z,8.39
2024-02-24T00:10:58.203Z,8.39
2024-02-24T00:13:24.894Z,8.39
2024-02-24T00:15:51.776Z,8.33
2024-02-24T00:18:19.962Z,8.27
2024-02-24T00:20:46.677Z,8.31
2024-02-24T00:23:13.543Z,8.31
2024-02-24T00:25:40.318Z,8.34
2024-02-24T00:28:10.555Z,8.36
2024-02-24T00:30:37.761Z,8.36
2024-02-24T00:33:05.244Z,8.35
2024-02-24T00:35:32.164Z,8.31
2024-02-24T00:37:59.135Z,8.26
2024-02-24T00:40:26.006Z,8.20
2024-02-24T00:42:52.693Z,8.20
2024-02-24T00:45:20.752Z,8.15
2024-02-24T00:47:47.546Z,8.10
2024-02-24T00:50:14.361Z,8.09
2024-02-24T00:52:41.259Z,8.06
2024-02-24T00:55:08.751Z,8.03
2024-02-24T00:57:35.705Z,8.00
2024-02-24T01:00:03.232Z,7.98
2024-02-24T01:02:31.336Z,7.96
2024-02-24T01:04:58.028Z,7.94
2024-02-24T01:07:24.783Z,7.95
2024-02-24T01:09:51.475Z,7.95
2024-02-24T01:12:18.246Z,7.94
2024-02-24T01:14:45.148Z,7.93
2024-02-24T01:17:13.225Z,7.92
2024-02-24T01:19:41.279Z,7.91
2024-02-24T01:22:08.532Z,7.86
2024-02-24T01:24:35.263Z,7.81
2024-02-24T01:27:01.928Z,7.76
2024-02-24T01:29:28.720Z,7.71
2024-02-24T01:31:55.578Z,7.64
2024-02-24T01:34:22.360Z,7.60
2024-02-24T01:36:50.461Z,7.56
2024-02-24T01:39:17.163Z,7.52
2024-02-24T01:41:44.397Z,7.50
2024-02-24T01:44:11.598Z,7.46
2024-02-24T01:46:38.352Z,7.45
2024-02-24T01:49:05.240Z,7.42
2024-02-24T01:51:32.510Z,7.41
2024-02-24T01:54:00.732Z,7.40
2024-02-24T01:56:27.919Z,7.40
2024-02-24T01:58:55.164Z,7.40
2024-02-24T02:01:22.126Z,7.39
2024-02-24T02:03:48.933Z,7.42
2024-02-24T02:06:15.785Z,7.44
2024-02-24T02:08:42.556Z,7.41
2024-02-24T02:11:11.805Z,7.38
2024-02-24T02:13:38.780Z,7.35
2024-02-24T02:16:06.467Z,7.31
2024-02-24T02:18:35.559Z,7.28
2024-02-24T02:21:03.977Z,7.27
2024-02-24T02:23:32.158Z,7.26
2024-02-24T02:25:59.037Z,7.26
2024-02-24T02:28:25.827Z,7.26
2024-02-24T02:30:52.982Z,7.30
2024-02-24T02:33:20.055Z,7.39
2024-02-24T02:35:47.080Z,7.46
2024-02-24T02:38:14.131Z,7.49
2024-02-24T02:40:42.243Z,7.49
2024-02-24T02:43:09.093Z,7.50
2024-02-24T02:45:35.807Z,7.53
2024-02-24T02:48:02.733Z,7.54
2024-02-24T02:50:29.638Z,7.54
2024-02-24T02:52:56.978Z,7.51
2024-02-24T02:55:23.695Z,7.48
2024-02-24T02:57:52.113Z,7.41
2024-02-24T03:00:19.236Z,7.34
2024-02-24T03:02:46.048Z,7.35
2024-02-24T03:05:13.110Z,7.40
2024-02-24T03:07:39.871Z,7.40
2024-02-24T03:10:08.171Z,7.40
2024-02-24T03:12:35.190Z,7.41
2024-02-24T03:15:03.850Z,7.46
2024-02-24T03:17:30.647Z,7.49
2024-02-24T03:19:57.532Z,7.48
2024-02-24T03:22:24.253Z,7.51
2024-02-24T03:24:51.106Z,7.56
2024-02-24T03:27:17.845Z,7.61
2024-02-24T03:29:44.661Z,7.61
2024-02-24T03:32:12.860Z,7.63
2024-02-24T03:34:39.625Z,7.67
2024-02-24T03:37:06.430Z,7.70
2024-02-24T03:39:33.260Z,7.68
2024-02-24T03:41:59.939Z,7.64
2024-02-24T03:44:26.647Z,7.63
2024-02-24T03:46:53.879Z,7.62
2024-02-24T03:49:21.934Z,7.65
2024-02-24T03:51:48.697Z,7.67
2024-02-24T03:54:15.435Z,7.68
2024-02-24T03:56:42.130Z,7.66
2024-02-24T03:59:08.922Z,7.62
2024-02-24T04:01:35.669Z,7.60
2024-02-24T04:04:02.420Z,7.62
2024-02-24T04:06:30.621Z,7.62
2024-02-24T04:08:57.427Z,7.63
2024-02-24T04:11:24.260Z,7.67
2024-02-24T04:13:50.991Z,7.70
2024-02-24T04:16:18.070Z,7.72
2024-02-24T04:18:44.965Z,7.72
2024-02-24T04:21:11.732Z,7.75
2024-02-24T04:23:39.833Z,7.77
2024-02-24T04:26:06.626Z,7.76
2024-02-24T04:28:33.523Z,7.78
2024-02-24T04:31:00.372Z,7.79
2024-02-24T04:33:27.234Z,7.79
2024-02-24T04:35:54.047Z,7.80
2024-02-24T04:38:20.838Z,7.79
2024-02-24T04:40:48.915Z,7.79
2024-02-24T04:43:16.580Z,7.78
2024-02-24T04:45:43.282Z,7.75
2024-02-24T04:48:10.097Z,7.75
2024-02-24T04:50:36.994Z,7.75
2024-02-24T04:53:04.080Z,7.74
2024-02-24T04:55:30.841Z,7.75
2024-02-24T04:57:59.014Z,7.73
2024-02-24T05:00:26.415Z,7.71
2024-02-24T05:02:54.026Z,7.68
2024-02-24T05:05:20.932Z,7.65
2024-02-24T05:07:47.647Z,7.61
2024-02-24T05:10:14.381Z,7.59
2024-02-24T05:12:48.800Z,7.58
2024-02-24T05:15:18.612Z,7.58
2024-02-24T05:17:45.618Z,7.58
2024-02-24T05:20:14.146Z,7.59
2024-02-24T05:22:41.145Z,7.58
2024-02-24T05:25:09.820Z,7.58
2024-02-24T05:27:36.911Z,7.61
2024-02-24T05:30:04.762Z,7.63
2024-02-24T05:32:32.957Z,7.68
2024-02-24T05:34:59.824Z,7.68
2024-02-24T05:37:26.610Z,7.68
2024-02-24T05:39:53.574Z,7.70
2024-02-24T05:42:20.707Z,7.71
2024-02-24T05:44:47.448Z,7.72
2024-02-24T05:47:14.214Z,7.72
2024-02-24T05:49:42.564Z,7.73
2024-02-24T05:52:09.389Z,7.74
2024-02-24T05:54:40.011Z,7.76
2024-02-24T05:57:06.814Z,7.79
2024-02-24T05:59:33.540Z,7.80
2024-02-24T06:02:00.545Z,7.74
2024-02-24T06:04:27.294Z,7.71
2024-02-24T06:06:55.411Z,7.67
2024-02-24T06:09:22.138Z,7.64
2024-02-24T06:11:49.019Z,7.66
2024-02-24T06:14:15.832Z,7.67
2024-02-24T06:16:42.619Z,7.72
2024-02-24T06:19:09.854Z,7.77
2024-02-24T06:21:36.653Z,7.81
2024-02-24T06:24:05.197Z,7.88
2024-02-24T06:26:31.956Z,7.86
2024-02-24T06:28:58.659Z,7.83
2024-02-24T06:31:25.389Z,7.83
2024-02-24T06:33:52.249Z,7.79
2024-02-24T06:36:19.032Z,7.80
2024-02-24T06:38:45.843Z,7.80
2024-02-24T06:41:15.459Z,7.85
2024-02-24T06:43:42.278Z,7.89
2024-02-24T06:46:10.722Z,7.90
2024-02-24T06:48:37.585Z,7.88
2024-02-24T06:51:05.232Z,7.90
2024-02-24T06:53:32.092Z,7.93
2024-02-24T06:55:58.803Z,7.94
2024-02-24T06:58:26.870Z,7.96
2024-02-24T07:00:53.559Z,7.98
2024-02-24T07:03:20.376Z,8.02
2024-02-24T07:05:47.348Z,8.01
2024-02-24T07:08:14.079Z,8.01
2024-02-24T07:10:40.822Z,8.01
2024-02-24T07:13:07.472Z,8.00
2024-02-24T07:15:35.533Z,8.00
2024-02-24T07:18:02.365Z,8.01
2024-02-24T07:20:29.170Z,8.02
2024-02-24T07:22:55.922Z,8.01
2024-02-24T07:25:22.652Z,8.00
2024-02-24T07:27:49.784Z,7.99
2024-02-24T07:30:16.559Z,7.97
2024-02-24T07:32:46.825Z,7.94
2024-02-24T07:35:14.585Z,7.90
2024-02-24T07:37:41.386Z,7.88
2024-02-24T07:40:09.193Z,7.88
2024-02-24T07:42:36.024Z,7.88
2024-02-24T07:45:03.124Z,7.91
2024-02-24T07:47:30.030Z,7.91
2024-02-24T07:49:58.190Z,7.89
2024-02-24T07:52:24.892Z,7.84
2024-02-24T07:54:51.653Z,7.81
2024-02-24T07:57:18.358Z,7.81
2024-02-24T07:59:45.135Z,7.84
2024-02-24T08:02:12.004Z,7.89
2024-02-24T08:04:38.775Z,7.93
2024-02-24T08:07:06.995Z,7.96
2024-02-24T08:09:33.743Z,7.97
2024-02-24T08:12:01.047Z,8.02
2024-02-24T08:14:28.006Z,8.05
2024-02-24T08:16:54.734Z,8.08
2024-02-24T08:19:21.678Z,8.11
2024-02-24T08:21:48.523Z,8.11
2024-02-24T08:24:17.711Z,8.08
2024-02-24T08:26:45.757Z,8.03
2024-02-24T08:29:12.947Z,7.99
2024-02-24T08:31:40.190Z,7.98
2024-02-24T08:34:07.263Z,8.00
2024-02-24T08:36:34.656Z,8.01
2024-02-24T08:39:02.202Z,8.07
2024-02-24T08:41:33.312Z,8.07
2024-02-24T08:44:00.821Z,8.03
2024-02-24T08:46:27.632Z,8.03
2024-02-24T08:48:55.405Z,8.04
2024-02-24T08:51:22.632Z,8.07
2024-02-24T08:53:49.721Z,8.05
2024-02-24T08:56:19.369Z,8.07
2024-02-24T08:58:47.718Z,8.09
2024-02-24T09:01:15.194Z,8.06
2024-02-24T09:03:42.276Z,8.05
2024-02-24T09:06:09.426Z,8.08
2024-02-24T09:08:38.649Z,8.09
2024-02-24T09:11:05.623Z,8.10
2024-02-24T09:13:32.423Z,8.09
2024-02-24T09:16:00.816Z,7.98
2024-02-24T09:18:29.249Z,7.93
2024-02-24T09:20:56.297Z,7.94
2024-02-24T09:23:23.190Z,7.91
2024-02-24T09:25:49.973Z,7.87
2024-02-24T09:28:16.665Z,7.82
2024-02-24T09:30:43.451Z,7.81
2024-02-24T09:33:11.925Z,7.85
2024-02-24T09:35:38.840Z,7.89
2024-02-24T09:38:05.714Z,7.88
2024-02-24T09:40:32.502Z,7.87
2024-02-24T09:43:04.464Z,7.82
2024-02-24T09:45:35.234Z,7.78
2024-02-24T09:48:02.461Z,7.77
2024-02-24T09:50:30.819Z,7.76
2024-02-24T09:52:57.712Z,7.73
2024-02-24T09:55:24.586Z,7.74
2024-02-24T09:57:54.867Z,7.70
2024-02-24T10:00:21.769Z,7.65
2024-02-24T10:02:50.416Z,7.58
2024-02-24T10:05:17.801Z,7.45
2024-02-24T10:07:46.665Z,7.44
2024-02-24T10:10:15.674Z,7.39
2024-02-24T10:12:56.114Z,7.36
2024-02-24T10:15:23.037Z,7.31
2024-02-24T10:17:49.955Z,7.29
2024-02-24T10:20:16.900Z,7.27
2024-02-24T10:22:43.658Z,7.28
2024-02-24T10:25:12.026Z,7.26
2024-02-24T10:27:40.081Z,7.28
2024-02-24T10:30:08.257Z,7.27
2024-02-24T10:32:35.580Z,7.29
2024-02-24T10:35:04.182Z,7.25
2024-02-24T10:37:48.630Z,7.21
2024-02-24T10:40:23.233Z,7.19
2024-02-24T10:42:50.707Z,7.19
2024-02-24T10:45:18.034Z,7.22
2024-02-24T10:47:44.874Z,7.25
2024-02-24T10:50:13.061Z,7.26
2024-02-24T10:52:41.864Z,7.29
2024-02-24T10:55:09.360Z,7.34
2024-02-24T10:57:38.767Z,7.32
2024-02-24T11:00:24.926Z,7.32
2024-02-24T11:02:52.009Z,7.30
2024-02-24T11:05:19.343Z,7.29
2024-02-24T11:07:46.113Z,7.24
2024-02-24T11:10:16.656Z,7.25
2024-02-24T11:12:44.714Z,7.26
2024-02-24T11:15:17.731Z,7.30
2024-02-24T11:17:56.848Z,7.39
2024-02-24T11:20:54.425Z,7.47
2024-02-24T11:23:23.005Z,7.52
2024-02-24T11:26:10.346Z,7.57
2024-02-24T11:28:39.382Z,7.62
2024-02-24T11:31:06.243Z,7.67
2024-02-24T11:33:38.675Z,7.71
2024-02-24T11:36:07.421Z,7.77
2024-02-24T11:38:34.791Z,7.79
2024-02-24T11:41:07.776Z,7.81
2024-02-24T11:43:34.806Z,7.85
2024-02-24T11:46:04.852Z,7.88
2024-02-24T11:48:32.259Z,7.86
2024-02-24T11:50:59.241Z,7.84
2024-02-24T11:53:26.047Z,7.81
2024-02-24T11:55:52.838Z,7.75
2024-02-24T11:58:20.956Z,7.77
2024-02-24T12:00:47.768Z,7.79
2024-02-24T12:03:17.006Z,7.81
2024-02-24T12:05:44.430Z,7.84
2024-02-24T12:08:14.035Z,7.88
2024-02-24T12:10:41.533Z,7.89
2024-02-24T12:13:11.294Z,7.88
2024-02-24T12:15:39.601Z,7.90
2024-02-24T12:18:07.116Z,7.94
2024-02-24T12:20:38.133Z,7.98
2024-02-24T12:23:05.920Z,8.00
2024-02-24T12:25:32.760Z,7.98
2024-02-24T12:28:00.097Z,7.95
2024-02-24T12:30:27.747Z,7.96
2024-02-24T12:32:54.954Z,7.95
2024-02-24T12:35:25.906Z,7.94
2024-02-24T12:37:54.062Z,7.94
2024-02-24T12:40:29.174Z,7.94
2024-02-24T12:42:56.131Z,7.96
2024-02-24T12:45:23.394Z,7.94
2024-02-24T12:47:50.914Z,7.94
2024-02-24T12:50:18.720Z,7.94
2024-02-24T12:52:45.606Z,7.93
2024-02-24T12:55:13.920Z,7.94
2024-02-24T12:57:40.884Z,7.94
2024-02-24T13:00:09.406Z,7.92
2024-02-24T13:02:36.853Z,7.88
2024-02-24T13:05:05.178Z,7.87
2024-02-24T13:07:32.277Z,7.85
2024-02-24T13:09:58.985Z,7.85
2024-02-24T13:12:27.390Z,7.88
2024-02-24T13:14:54.368Z,7.90
2024-02-24T13:17:22.524Z,7.92
2024-02-24T13:19:52.497Z,7.91
2024-02-24T13:22:19.893Z,7.87
2024-02-24T13:24:46.668Z,7.89
2024-02-24T13:27:13.675Z,7.91
2024-02-24T13:29:42.063Z,7.92
2024-02-24T13:32:09.079Z,7.94
2024-02-24T13:34:35.955Z,7.94
2024-02-24T13:37:05.585Z,7.95
2024-02-24T13:39:33.125Z,7.96
2024-02-24T13:41:59.844Z,7.96
2024-02-24T13:44:26.604Z,7.97
2024-02-24T13:46:54.720Z,7.98
2024-02-24T13:49:21.680Z,7.97
2024-02-24T13:51:48.599Z,7.98
2024-02-24T13:54:15.437Z,8.02
2024-02-24T13:56:42.321Z,8.06
2024-02-24T13:59:09.295Z,8.10
2024-02-24T14:01:36.345Z,8.11
2024-02-24T14:04:05.093Z,8.11
2024-02-24T14:06:32.479Z,8.10
2024-02-24T14:09:05.826Z,8.12
2024-02-24T14:11:32.815Z,8.10
2024-02-24T14:13:59.528Z,8.10
2024-02-24T14:16:27.206Z,8.07
2024-02-24T14:21:22.108Z,8.00
2024-02-24T14:23:49.458Z,7.99
2024-02-24T14:26:16.250Z,7.98
2024-02-24T14:28:44.163Z,7.97
2024-02-24T14:31:12.069Z,7.98
2024-02-24T14:33:38.958Z,7.98
2024-02-24T14:36:06.243Z,7.97
2024-02-24T14:38:34.496Z,7.99
2024-02-24T14:41:01.486Z,7.99
2024-02-24T14:43:28.560Z,8.01
2024-02-24T14:45:55.866Z,8.04
2024-02-24T14:48:22.971Z,8.04
2024-02-24T14:50:50.845Z,8.04
2024-02-24T14:53:17.712Z,8.02
2024-02-24T14:55:45.823Z,8.01
2024-02-24T14:58:13.589Z,7.97
2024-02-24T15:00:40.347Z,7.96
2024-02-24T15:03:10.772Z,7.95
2024-02-24T15:05:38.993Z,7.96
2024-02-24T15:08:06.593Z,7.96
2024-02-24T15:10:33.341Z,8.00
2024-02-24T15:13:01.346Z,8.02
2024-02-24T15:15:28.044Z,8.04
2024-02-24T15:17:55.589Z,8.06
2024-02-24T15:20:22.459Z,8.05
2024-02-24T15:22:51.288Z,8.05
2024-02-24T15:25:18.402Z,8.06
2024-02-24T15:27:45.061Z,8.07
2024-02-24T15:30:13.914Z,8.10
2024-02-24T15:32:40.861Z,8.12
2024-02-24T15:35:08.356Z,8.09
2024-02-24T15:37:36.432Z,8.07
2024-02-24T15:40:08.564Z,8.07
2024-02-24T15:42:36.450Z,8.09
2024-02-24T15:45:03.802Z,8.11
2024-02-24T15:47:32.094Z,8.13
2024-02-24T15:49:58.956Z,8.15
2024-02-24T15:52:25.649Z,8.17
2024-02-24T15:54:52.425Z,8.16
2024-02-24T15:57:19.242Z,8.15
2024-02-24T15:59:45.975Z,8.15
2024-02-24T16:02:12.944Z,8.14
2024-02-24T16:04:41.177Z,8.13
2024-02-24T16:07:08.668Z,8.09
2024-02-24T16:09:36.855Z,8.10
2024-02-24T16:12:04.774Z,8.11
2024-02-24T16:14:31.628Z,8.12
2024-02-24T16:16:58.420Z,8.12
2024-02-24T16:19:25.217Z,8.11
2024-02-24T16:21:53.470Z,8.08
2024-02-24T16:24:21.106Z,8.08
2024-02-24T16:26:49.565Z,8.11
2024-02-24T16:29:16.302Z,8.07
2024-02-24T16:31:43.243Z,8.06
2024-02-24T16:34:10.900Z,8.10
2024-02-24T16:36:37.719Z,8.11
2024-02-24T16:39:10.665Z,8.11
2024-02-24T16:41:38.354Z,8.07
2024-02-24T16:44:07.845Z,8.03
2024-02-24T16:46:42.082Z,8.03
2024-02-24T16:49:09.113Z,8.02
2024-02-24T16:51:35.856Z,8.01
2024-02-24T16:54:02.619Z,7.99
2024-02-24T16:56:30.843Z,7.99
2024-02-24T16:58:57.580Z,8.00
2024-02-24T17:01:24.292Z,8.03
2024-02-24T17:03:50.985Z,8.05
2024-02-24T17:06:17.947Z,8.03
2024-02-24T17:08:45.697Z,8.04
2024-02-24T17:11:12.602Z,8.02
2024-02-24T17:13:43.016Z,8.02
2024-02-24T17:16:09.791Z,8.03
2024-02-24T17:18:38.423Z,8.01
2024-02-24T17:21:05.903Z,7.97
2024-02-24T17:23:32.795Z,7.92
2024-02-24T17:25:59.766Z,7.83
2024-02-24T17:28:26.623Z,7.82
2024-02-24T17:30:55.965Z,7.80
2024-02-24T17:33:22.766Z,7.78
2024-02-24T17:35:49.529Z,7.75
2024-02-24T17:38:17.936Z,7.77
2024-02-24T17:40:44.729Z,7.79
2024-02-24T17:43:11.434Z,7.80
2024-02-24T17:45:38.092Z,7.81
2024-02-24T17:48:07.202Z,7.85
2024-02-24T17:50:34.136Z,7.87
2024-02-24T17:53:02.617Z,7.88
2024-02-24T17:55:29.384Z,7.90
2024-02-24T17:57:56.405Z,7.92
2024-02-24T18:00:23.939Z,7.93
2024-02-24T18:02:50.840Z,7.97
2024-02-24T18:05:19.948Z,7.95
2024-02-24T18:07:47.195Z,7.93
2024-02-24T18:10:14.006Z,7.93
2024-02-24T18:12:40.711Z,7.94
2024-02-24T18:15:09.047Z,7.95
2024-02-24T18:17:35.892Z,7.95
2024-02-24T18:20:02.749Z,7.96
2024-02-24T18:22:30.868Z,8.02
2024-02-24T18:24:57.578Z,8.02
2024-02-24T18:27:24.569Z,8.04
2024-02-24T18:29:51.482Z,8.04
2024-02-24T18:32:18.295Z,8.04
2024-02-24T18:34:45.298Z,8.04
2024-02-24T18:37:12.042Z,8.05
2024-02-24T18:39:41.946Z,8.06
2024-02-24T18:42:08.630Z,8.06
2024-02-24T18:44:35.974Z,8.06
2024-02-24T18:47:02.754Z,8.06
2024-02-24T18:49:32.378Z,8.04
2024-02-24T18:51:59.681Z,8.03
2024-02-24T18:54:29.243Z,8.04
2024-02-24T18:56:57.919Z,8.04
2024-02-24T18:59:24.960Z,8.04
2024-02-24T19:01:51.752Z,8.04
2024-02-24T19:04:19.344Z,8.06
2024-02-24T19:06:46.144Z,8.05
2024-02-24T19:09:12.944Z,8.04
2024-02-24T19:11:40.360Z,8.03
2024-02-24T19:14:08.565Z,8.05
2024-02-24T19:16:35.638Z,8.08
2024-02-24T19:19:03.152Z,8.09
2024-02-24T19:21:30.141Z,8.10
2024-02-24T19:23:57.102Z,8.09
2024-02-24T19:26:25.052Z,8.10
2024-02-24T19:28:51.771Z,8.08
2024-02-24T19:31:19.875Z,8.05
2024-02-24T19:33:47.461Z,8.02
2024-02-24T19:36:14.234Z,7.98
2024-02-24T19:38:41.075Z,7.98
2024-02-24T19:41:09.172Z,7.94
2024-02-24T19:43:35.981Z,7.95
2024-02-24T19:46:02.694Z,7.94
2024-02-24T19:48:30.911Z,7.94
2024-02-24T19:50:58.893Z,7.92
2024-02-24T19:53:25.880Z,7.88
2024-02-24T19:55:52.687Z,7.86
2024-02-24T19:58:28.794Z,7.89
2024-02-24T20:01:00.924Z,7.91
2024-02-24T20:03:27.912Z,7.93
2024-02-24T20:05:56.284Z,7.94
2024-02-24T20:08:23.642Z,7.92
2024-02-24T20:10:50.448Z,7.90
2024-02-24T20:13:17.381Z,7.89
2024-02-24T20:15:44.141Z,7.87
2024-02-24T20:18:11.057Z,7.85
2024-02-24T20:20:37.922Z,7.86
2024-02-24T20:23:06.126Z,7.86
2024-02-24T20:25:32.807Z,7.87
2024-02-24T20:28:00.883Z,7.90
2024-02-24T20:30:27.686Z,7.94
2024-02-24T20:32:54.562Z,7.93
2024-02-24T20:35:21.641Z,7.97
2024-02-24T20:37:48.985Z,8.00
2024-02-24T20:40:17.099Z,7.94
2024-02-24T20:42:43.991Z,7.96
2024-02-24T20:45:12.542Z,7.97
2024-02-24T20:47:39.344Z,7.97
2024-02-24T20:50:07.226Z,8.00
2024-02-24T20:52:33.971Z,7.96
2024-02-24T20:55:00.685Z,7.92
2024-02-24T20:57:29.395Z,7.91
2024-02-24T20:59:56.248Z,7.91
2024-02-24T21:02:22.983Z,7.89
2024-02-24T21:04:49.726Z,7.90
2024-02-24T21:07:16.436Z,7.91
2024-02-24T21:09:43.177Z,7.91
2024-02-24T21:12:11.868Z,7.95
2024-02-24T21:14:40.117Z,7.99
2024-02-24T21:17:07.543Z,7.99
2024-02-24T21:19:34.939Z,7.99
2024-02-24T21:22:01.756Z,8.03
2024-02-24T21:24:28.477Z,8.05
2024-02-24T21:26:55.230Z,8.07
2024-02-24T21:29:22.094Z,8.06
2024-02-24T21:31:53.661Z,8.06
2024-02-24T21:34:21.727Z,8.08
2024-02-24T21:36:48.525Z,8.08
2024-02-24T21:39:15.354Z,8.10
2024-02-24T21:41:42.184Z,8.13
2024-02-24T21:44:09.018Z,8.09
2024-02-24T21:46:35.715Z,8.08
2024-02-24T21:49:04.521Z,8.11
2024-02-24T21:51:31.563Z,8.09
2024-02-24T21:53:58.497Z,8.05
2024-02-24T21:56:25.604Z,8.06
2024-02-24T21:58:52.920Z,8.07
2024-02-24T22:01:22.499Z,8.08
2024-02-24T22:03:49.996Z,8.06
2024-02-24T22:06:18.119Z,8.04
2024-02-24T22:08:44.931Z,8.03
2024-02-24T22:11:11.691Z,8.04
2024-02-24T22:13:38.920Z,8.03
2024-02-24T22:16:10.962Z,8.01
2024-02-24T22:18:37.768Z,8.03
2024-02-24T22:21:06.092Z,8.03
2024-02-24T22:23:34.237Z,8.03
2024-02-24T22:26:01.250Z,8.02
2024-02-24T22:28:28.025Z,8.03
2024-02-24T22:30:54.837Z,8.04
2024-02-24T22:33:21.747Z,8.07
2024-02-24T22:35:48.664Z,8.10
2024-02-24T22:38:15.433Z,8.10
2024-02-24T22:40:43.518Z,8.06
2024-02-24T22:43:10.249Z,8.04
2024-02-24T22:45:37.282Z,8.05
2024-02-24T22:48:05.005Z,8.09
2024-02-24T22:50:32.733Z,8.10
2024-02-24T22:52:59.552Z,8.12
2024-02-24T22:55:28.503Z,8.11
2024-02-24T22:57:56.900Z,8.10
2024-02-24T23:00:23.631Z,8.07
2024-02-24T23:02:50.300Z,8.04
2024-02-24T23:05:17.828Z,8.06
2024-02-24T23:07:44.568Z,8.07
2024-02-24T23:10:12.459Z,8.06
2024-02-24T23:12:39.499Z,8.06
2024-02-24T23:15:08.843Z,8.05
2024-02-24T23:17:35.738Z,8.05
2024-02-24T23:20:02.504Z,8.05
2024-02-24T23:22:29.249Z,8.04
2024-02-24T23:24:55.970Z,8.05
2024-02-24T23:27:22.754Z,8.06
2024-02-24T23:29:49.496Z,8.06
2024-02-24T23:32:17.669Z,8.09
2024-02-24T23:34:44.388Z,8.06
2024-02-24T23:37:11.114Z,8.06
2024-02-24T23:39:37.822Z,8.04
2024-02-24T23:42:05.476Z,8.01
2024-02-24T23:44:32.227Z,8.03
2024-02-24T23:46:58.930Z,8.05
2024-02-24T23:49:27.066Z,8.04
2024-02-24T23:51:53.893Z,8.00
2024-02-24T23:54:20.610Z,7.96
2024-02-24T23:56:47.353Z,7.95
2024-02-24T23:59:14.183Z,7.95
